Time;durP1;ratioP1;P1;durP2;ratioP2;P2;SDS_P1;SDS_P2;PMS_P1;PMS_P2;Temp;Humidity;BMP_temperature;BMP_pressure;BME280_temperature;BME280_humidity;BME280_pressure;Samples;Min_cycle;Max_cycle;Signal;HPM_P1;HPM_P2
2021/04/05 00:01:04;;;;;;;;;;;18.20;48.30;;;;;;5026196;28;20350;-69
2021/04/05 00:03:30;;;;;;;;;;;18.20;48.30;;;;;;5025559;28;19966;-69
2021/04/05 00:05:55;;;;;;;;;;;18.20;48.30;;;;;;5025716;28;19924;-69
2021/04/05 00:08:21;;;;;;;;;;;18.20;48.30;;;;;;5004964;28;20568;-67
2021/04/05 00:10:47;;;;;;;;;;;18.20;48.30;;;;;;5023894;28;19925;-66
2021/04/05 00:13:14;;;;;;;;;;;18.20;48.30;;;;;;5023435;28;19918;-67
2021/04/05 00:15:40;;;;;;;;;;;18.20;48.30;;;;;;5023964;28;19913;-68
2021/04/05 00:18:05;;;;;;;;;;;18.20;48.30;;;;;;5025519;28;20410;-68
2021/04/05 00:20:33;;;;;;;;;;;18.20;48.30;;;;;;5025595;28;19925;-69
2021/04/05 00:22:58;;;;;;;;;;;18.20;48.30;;;;;;5024660;28;19967;-69
2021/04/05 00:25:24;;;;;;;;;;;18.20;48.30;;;;;;5025622;28;19921;-68
2021/04/05 00:27:50;;;;;;;;;;;18.20;48.30;;;;;;5025725;28;20380;-69
2021/04/05 00:30:23;;;;;;;;;;;18.20;48.40;;;;;;5026116;28;20572;-69
2021/04/05 00:32:48;;;;;;;;;;;18.20;48.30;;;;;;5026971;28;20029;-68
2021/04/05 00:35:14;;;;;;;;;;;18.20;48.30;;;;;;5032843;28;19935;-69
2021/04/05 00:37:40;;;;;;;;;;;18.20;48.30;;;;;;5026581;28;19921;-69
2021/04/05 00:40:08;;;;;;;;;;;18.20;48.30;;;;;;5024500;28;19913;-69
2021/04/05 00:42:34;;;;;;;;;;;18.20;48.30;;;;;;5024016;28;19939;-68
2021/04/05 00:44:59;;;;;;;;;;;18.20;48.30;;;;;;5006515;28;20015;-68
2021/04/05 00:47:25;;;;;;;;;;;18.20;48.30;;;;;;5003272;28;19963;-69
2021/04/05 00:49:50;;;;;;;;;;;18.20;48.30;;;;;;5025901;28;19909;-69
2021/04/05 00:52:16;;;;;;;;;;;18.20;48.30;;;;;;5024964;28;19920;-67
2021/04/05 00:54:41;;;;;;;;;;;18.20;48.40;;;;;;5007730;28;20484;-67
2021/04/05 00:57:07;;;;;;;;;;;18.20;48.30;;;;;;5008196;28;19917;-68
2021/04/05 00:59:32;;;;;;;;;;;18.20;48.30;;;;;;5007530;28;19921;-68
2021/04/05 01:01:57;;;;;;;;;;;18.20;48.30;;;;;;5025281;28;19920;-68
2021/04/05 01:04:23;;;;;;;;;;;18.20;48.30;;;;;;5025300;28;20276;-68
2021/04/05 01:06:48;;;;;;;;;;;18.20;48.30;;;;;;5027922;28;19913;-67
2021/04/05 01:09:14;;;;;;;;;;;18.20;48.40;;;;;;5028902;28;19917;-69
2021/04/05 01:11:39;;;;;;;;;;;18.20;48.40;;;;;;5011332;28;20391;-69
2021/04/05 01:14:05;;;;;;;;;;;18.20;48.50;;;;;;5029044;28;19920;-66
2021/04/05 01:16:30;;;;;;;;;;;18.20;48.50;;;;;;5029170;28;19913;-68
2021/04/05 01:18:56;;;;;;;;;;;18.20;48.50;;;;;;5010928;28;20295;-68
2021/04/05 01:21:21;;;;;;;;;;;18.20;48.50;;;;;;5028973;28;19988;-69
2021/04/05 01:23:47;;;;;;;;;;;18.20;48.60;;;;;;5028936;28;19975;-69
2021/04/05 01:26:12;;;;;;;;;;;18.20;48.60;;;;;;5028770;28;19913;-69
2021/04/05 01:28:38;;;;;;;;;;;18.10;48.50;;;;;;5028422;28;19913;-68
2021/04/05 01:31:03;;;;;;;;;;;18.20;48.60;;;;;;5028482;28;20320;-69
2021/04/05 01:33:30;;;;;;;;;;;18.20;48.60;;;;;;5027656;28;19925;-69
2021/04/05 01:35:56;;;;;;;;;;;18.10;48.50;;;;;;5022224;28;19921;-69
2021/04/05 01:38:23;;;;;;;;;;;18.20;48.60;;;;;;5028536;28;19933;-69
2021/04/05 01:40:55;;;;;;;;;;;18.10;48.50;;;;;;5026590;28;20024;-69
2021/04/05 01:43:20;;;;;;;;;;;18.20;48.60;;;;;;5026683;28;19918;-69
2021/04/05 01:45:46;;;;;;;;;;;18.20;48.60;;;;;;5026509;28;20696;-69
2021/04/05 01:48:13;;;;;;;;;;;18.20;49.20;;;;;;5009088;28;19917;-68
2021/04/05 01:50:39;;;;;;;;;;;18.20;48.50;;;;;;5025702;28;19917;-69
2021/04/05 01:53:05;;;;;;;;;;;18.20;48.50;;;;;;5027331;28;19921;-69
2021/04/05 01:55:34;;;;;;;;;;;18.30;48.50;;;;;;5028475;28;19913;-69
2021/04/05 01:58:00;;;;;;;;;;;18.20;48.40;;;;;;5028363;28;20494;-68
2021/04/05 02:00:27;;;;;;;;;;;18.20;48.50;;;;;;5026172;28;19919;-68
2021/04/05 02:02:53;;;;;;;;;;;18.20;48.50;;;;;;5026185;28;19913;-67
2021/04/05 02:05:18;;;;;;;;;;;18.20;48.50;;;;;;5026419;28;20474;-69
2021/04/05 02:07:44;;;;;;;;;;;18.20;48.50;;;;;;5009161;28;19917;-67
2021/04/05 02:10:10;;;;;;;;;;;18.20;48.50;;;;;;5027267;28;20279;-69
2021/04/05 02:12:36;;;;;;;;;;;18.20;48.50;;;;;;5026856;28;19917;-69
2021/04/05 02:15:03;;;;;;;;;;;18.20;48.50;;;;;;5027370;28;20629;-69
2021/04/05 02:17:29;;;;;;;;;;;18.20;48.40;;;;;;5020999;28;20843;-69
2021/04/05 02:19:54;;;;;;;;;;;18.20;48.40;;;;;;5009776;28;19920;-67
2021/04/05 02:22:19;;;;;;;;;;;18.20;48.40;;;;;;5027608;28;20307;-67
2021/04/05 02:24:45;;;;;;;;;;;18.20;48.30;;;;;;4993749;28;19921;-68
2021/04/05 02:27:10;;;;;;;;;;;18.20;48.30;;;;;;5010121;28;20379;-69
2021/04/05 02:29:36;;;;;;;;;;;18.20;48.90;;;;;;5027209;28;19916;-68
2021/04/05 02:32:01;;;;;;;;;;;18.20;48.30;;;;;;5019647;28;19925;-68
2021/04/05 02:34:27;;;;;;;;;;;18.20;48.30;;;;;;5009221;28;19922;-69
2021/04/05 02:36:52;;;;;;;;;;;18.20;48.30;;;;;;5027416;28;19924;-69
2021/04/05 02:39:18;;;;;;;;;;;18.20;48.30;;;;;;5027009;28;19913;-68
2021/04/05 02:41:43;;;;;;;;;;;18.20;48.30;;;;;;5010007;28;20003;-68
2021/04/05 02:44:09;;;;;;;;;;;18.20;48.30;;;;;;5027202;28;19917;-69
2021/04/05 02:46:35;;;;;;;;;;;18.20;48.30;;;;;;5027372;28;19913;-69
2021/04/05 02:49:01;;;;;;;;;;;18.20;48.30;;;;;;5027305;28;19917;-69
2021/04/05 02:51:26;;;;;;;;;;;18.20;48.30;;;;;;5027245;28;19922;-68
2021/04/05 02:53:53;;;;;;;;;;;18.20;48.30;;;;;;5008902;28;19924;-68
2021/04/05 02:56:19;;;;;;;;;;;18.20;48.40;;;;;;5027209;28;19920;-69
2021/04/05 02:58:45;;;;;;;;;;;18.10;48.40;;;;;;5027056;28;20007;-69
2021/04/05 03:01:11;;;;;;;;;;;18.10;48.50;;;;;;5028117;28;19914;-69
2021/04/05 03:03:37;;;;;;;;;;;18.10;48.50;;;;;;5005514;28;19944;-68
2021/04/05 03:06:02;;;;;;;;;;;18.10;48.50;;;;;;5022499;28;19913;-68
2021/04/05 03:08:28;;;;;;;;;;;18.10;48.50;;;;;;5008102;28;20327;-68
2021/04/05 03:10:55;;;;;;;;;;;18.10;48.60;;;;;;5008102;28;20375;-68
2021/04/05 03:13:21;;;;;;;;;;;18.10;48.50;;;;;;5008751;28;20126;-68
2021/04/05 03:15:46;;;;;;;;;;;18.10;48.50;;;;;;5009318;28;20089;-66
2021/04/05 03:18:12;;;;;;;;;;;18.10;48.50;;;;;;5008595;28;20251;-68
2021/04/05 03:20:37;;;;;;;;;;;18.10;48.50;;;;;;5008368;28;19998;-68
2021/04/05 03:23:03;;;;;;;;;;;18.10;48.50;;;;;;5026768;28;20237;-68
2021/04/05 03:25:28;;;;;;;;;;;18.10;48.40;;;;;;5026636;28;19974;-68
2021/04/05 03:27:54;;;;;;;;;;;18.10;48.40;;;;;;5025877;28;19960;-68
2021/04/05 03:30:20;;;;;;;;;;;18.10;48.40;;;;;;5025572;28;19924;-68
2021/04/05 03:32:46;;;;;;;;;;;18.10;48.40;;;;;;5025906;28;20074;-67
2021/04/05 03:35:13;;;;;;;;;;;18.10;48.40;;;;;;5008539;28;20003;-68
2021/04/05 03:37:39;;;;;;;;;;;18.10;48.40;;;;;;4989493;28;19920;-69
2021/04/05 03:40:06;;;;;;;;;;;18.10;48.30;;;;;;5008175;28;19913;-69
2021/04/05 03:42:36;;;;;;;;;;;18.10;48.40;;;;;;5025756;28;19921;-69
2021/04/05 03:45:05;;;;;;;;;;;18.10;48.40;;;;;;5026335;28;19917;-68
2021/04/05 03:47:37;;;;;;;;;;;18.10;48.30;;;;;;5025809;28;19919;-68
2021/04/05 03:50:05;;;;;;;;;;;18.10;48.30;;;;;;5018194;28;20256;-69
2021/04/05 03:52:31;;;;;;;;;;;18.10;48.20;;;;;;5008350;28;20346;-68
2021/04/05 03:55:03;;;;;;;;;;;18.10;48.20;;;;;;5024785;28;20575;-68
2021/04/05 03:57:33;;;;;;;;;;;18.10;48.20;;;;;;5006287;28;19913;-68
2021/04/05 04:00:00;;;;;;;;;;;18.10;48.30;;;;;;5025080;28;19925;-68
2021/04/05 04:02:32;;;;;;;;;;;18.10;48.20;;;;;;5007474;28;19913;-68
2021/04/05 04:05:13;;;;;;;;;;;18.10;48.20;;;;;;5006896;28;19924;-68
2021/04/05 04:07:42;;;;;;;;;;;18.10;48.20;;;;;;5007659;28;19924;-68
2021/04/05 04:10:12;;;;;;;;;;;18.10;48.20;;;;;;5008127;28;19960;-69
2021/04/05 04:12:41;;;;;;;;;;;18.10;48.20;;;;;;5008281;28;19971;-69
2021/04/05 04:15:06;;;;;;;;;;;18.10;48.20;;;;;;5008694;28;19967;-68
2021/04/05 04:17:32;;;;;;;;;;;18.10;48.10;;;;;;5026224;28;20131;-69
2021/04/05 04:19:58;;;;;;;;;;;18.10;48.00;;;;;;5008046;28;20445;-68
2021/04/05 04:22:23;;;;;;;;;;;18.10;48.00;;;;;;5007956;28;19948;-69
2021/04/05 04:24:49;;;;;;;;;;;18.10;48.10;;;;;;5008029;28;21540;-68
2021/04/05 04:27:15;;;;;;;;;;;18.10;48.10;;;;;;5026361;28;19920;-69
2021/04/05 04:29:40;;;;;;;;;;;18.10;48.10;;;;;;5026031;28;20538;-68
2021/04/05 04:32:06;;;;;;;;;;;18.10;48.20;;;;;;5025639;28;20129;-68
2021/04/05 04:34:31;;;;;;;;;;;18.00;48.10;;;;;;5009054;28;19917;-69
2021/04/05 04:37:01;;;;;;;;;;;18.00;48.20;;;;;;5025893;28;19921;-69
2021/04/05 04:39:26;;;;;;;;;;;18.00;48.20;;;;;;5025676;28;19940;-68
2021/04/05 04:41:51;;;;;;;;;;;18.00;48.20;;;;;;5001700;28;20379;-68
2021/04/05 04:44:17;;;;;;;;;;;18.00;48.20;;;;;;5039922;23;19929;-59
2021/04/05 04:46:42;;;;;;;;;;;18.00;48.10;;;;;;5034206;28;19941;-57
2021/04/05 04:49:09;;;;;;;;;;;18.00;48.20;;;;;;5021585;28;21491;-55
2021/04/05 04:51:34;;;;;;;;;;;18.00;48.20;;;;;;5037452;28;20417;-60
2021/04/05 04:54:00;;;;;;;;;;;18.00;48.20;;;;;;5037027;28;19968;-58
2021/04/05 04:56:26;;;;;;;;;;;18.00;48.10;;;;;;5022507;28;19967;-60
2021/04/05 04:58:53;;;;;;;;;;;18.00;48.10;;;;;;5033307;28;19940;-59
2021/04/05 05:01:19;;;;;;;;;;;18.00;48.10;;;;;;5040086;28;19928;-58
2021/04/05 05:03:45;;;;;;;;;;;18.00;48.20;;;;;;5040178;28;19918;-59
2021/04/05 05:06:12;;;;;;;;;;;18.00;48.10;;;;;;5025054;28;19924;-60
2021/04/05 05:08:37;;;;;;;;;;;18.00;48.20;;;;;;5039645;28;20226;-60
2021/04/05 05:11:04;;;;;;;;;;;18.00;48.20;;;;;;5039136;28;22818;-58
2021/04/05 05:13:29;;;;;;;;;;;18.00;48.10;;;;;;5039887;28;20055;-58
2021/04/05 05:15:55;;;;;;;;;;;18.00;48.10;;;;;;5024279;28;19932;-58
2021/04/05 05:18:20;;;;;;;;;;;17.90;48.10;;;;;;5039725;28;20004;-57
2021/04/05 05:20:46;;;;;;;;;;;18.00;48.10;;;;;;5038369;28;19928;-59
2021/04/05 05:23:11;;;;;;;;;;;17.90;48.10;;;;;;5023598;28;19962;-59
2021/04/05 05:25:36;;;;;;;;;;;18.00;48.10;;;;;;5006375;28;19932;-55
2021/04/05 05:28:03;;;;;;;;;;;18.00;48.10;;;;;;5022767;28;19925;-60
2021/04/05 05:30:29;;;;;;;;;;;18.00;48.10;;;;;;5022113;28;19921;-58
2021/04/05 05:32:55;;;;;;;;;;;18.00;48.10;;;;;;5024551;28;20070;-59
2021/04/05 05:35:20;;;;;;;;;;;18.00;48.10;;;;;;5039075;28;19924;-59
2021/04/05 05:37:46;;;;;;;;;;;17.90;48.00;;;;;;5023911;28;20403;-58
2021/04/05 05:40:12;;;;;;;;;;;17.90;48.00;;;;;;5039364;28;19917;-58
2021/04/05 05:42:44;;;;;;;;;;;18.00;48.00;;;;;;5039572;28;20378;-60
2021/04/05 05:45:09;;;;;;;;;;;18.00;48.00;;;;;;5020603;28;20301;-59
2021/04/05 05:47:53;;;;;;;;;;;17.90;48.00;;;;;;5038721;28;20012;-59
2021/04/05 05:50:40;;;;;;;;;;;17.90;48.00;;;;;;5023442;28;19917;-60
2021/04/05 05:53:35;;;;;;;;;;;18.00;48.10;;;;;;5021611;28;19928;-58
2021/04/05 05:56:18;;;;;;;;;;;17.90;48.10;;;;;;4999089;28;19972;-59
2021/04/05 05:58:49;;;;;;;;;;;18.00;48.10;;;;;;5022127;28;19948;-61
2021/04/05 06:01:23;;;;;;;;;;;18.00;48.10;;;;;;5021803;28;20371;-59
2021/04/05 06:03:48;;;;;;;;;;;17.90;48.10;;;;;;5020280;28;19964;-59
2021/04/05 06:06:18;;;;;;;;;;;18.00;48.20;;;;;;5023222;28;19960;-61
2021/04/05 06:08:44;;;;;;;;;;;17.90;48.10;;;;;;5038099;28;19917;-59
2021/04/05 06:11:23;;;;;;;;;;;17.90;48.10;;;;;;5021336;28;20008;-58
2021/04/05 06:13:54;;;;;;;;;;;17.90;48.10;;;;;;5038229;28;19955;-58
2021/04/05 06:16:35;;;;;;;;;;;18.00;48.20;;;;;;5023473;28;19917;-59
2021/04/05 06:19:18;;;;;;;;;;;17.90;48.20;;;;;;5022519;28;19925;-59
2021/04/05 06:21:47;;;;;;;;;;;17.90;48.20;;;;;;5022894;28;19917;-64
2021/04/05 06:24:28;;;;;;;;;;;17.90;48.20;;;;;;5023890;28;19921;-59
2021/04/05 06:26:55;;;;;;;;;;;17.90;48.20;;;;;;5022917;28;19928;-59
2021/04/05 06:29:29;;;;;;;;;;;17.90;48.20;;;;;;5023445;28;19917;-59
2021/04/05 06:31:57;;;;;;;;;;;17.90;48.20;;;;;;5039883;28;19970;-56
2021/04/05 06:34:34;;;;;;;;;;;17.90;48.20;;;;;;5021931;28;19936;-59
2021/04/05 06:37:06;;;;;;;;;;;17.90;48.30;;;;;;5021902;28;19928;-59
2021/04/05 06:39:31;;;;;;;;;;;17.90;48.90;;;;;;5002011;28;20302;-60
2021/04/05 06:42:00;;;;;;;;;;;17.90;48.40;;;;;;5021554;28;19917;-59
2021/04/05 06:44:27;;;;;;;;;;;17.90;48.40;;;;;;5021322;28;19928;-60
2021/04/05 06:47:00;;;;;;;;;;;17.90;48.50;;;;;;5037625;28;20101;-59
2021/04/05 06:49:57;;;;;;;;;;;17.90;48.50;;;;;;5037645;28;20382;-60
2021/04/05 06:52:29;;;;;;;;;;;17.90;48.60;;;;;;4988504;28;19921;-58
2021/04/05 06:54:57;;;;;;;;;;;17.90;48.70;;;;;;5021810;28;19932;-60
2021/04/05 06:57:29;;;;;;;;;;;17.90;48.70;;;;;;5022694;28;19924;-60
2021/04/05 07:00:01;;;;;;;;;;;17.90;48.80;;;;;;5037099;28;19917;-57
2021/04/05 07:02:29;;;;;;;;;;;17.90;49.30;;;;;;5022277;28;20484;-60
2021/04/05 07:05:14;;;;;;;;;;;17.90;49.80;;;;;;5020479;28;19953;-60
2021/04/05 07:07:44;;;;;;;;;;;17.80;50.10;;;;;;5037081;28;19921;-61
2021/04/05 07:10:09;;;;;;;;;;;17.70;50.50;;;;;;5036865;28;19917;-58
2021/04/05 07:12:52;;;;;;;;;;;17.70;50.60;;;;;;5021037;28;20405;-60
2021/04/05 07:15:26;;;;;;;;;;;17.70;50.50;;;;;;5037351;28;19917;-59
2021/04/05 07:17:57;;;;;;;;;;;17.70;50.50;;;;;;5022210;28;20418;-59
2021/04/05 07:20:26;;;;;;;;;;;17.70;50.50;;;;;;5037110;28;19991;-58
2021/04/05 07:22:51;;;;;;;;;;;17.70;50.30;;;;;;5022053;28;19948;-59
2021/04/05 07:25:20;;;;;;;;;;;17.70;50.20;;;;;;5022764;28;19948;-58
2021/04/05 07:27:55;;;;;;;;;;;17.70;50.10;;;;;;5036896;28;19971;-58
2021/04/05 07:30:32;;;;;;;;;;;17.70;49.90;;;;;;5020972;28;19975;-57
2021/04/05 07:32:58;;;;;;;;;;;17.80;49.90;;;;;;5022120;28;20012;-58
2021/04/05 07:35:37;;;;;;;;;;;17.80;49.80;;;;;;5021786;28;20426;-59
2021/04/05 07:38:04;;;;;;;;;;;17.80;49.80;;;;;;5014007;28;19917;-59
2021/04/05 07:40:39;;;;;;;;;;;17.80;49.60;;;;;;5021675;28;19921;-58
2021/04/05 07:43:05;;;;;;;;;;;17.80;49.50;;;;;;5020819;28;20394;-59
2021/04/05 07:45:48;;;;;;;;;;;17.80;49.40;;;;;;5020090;28;19921;-59
2021/04/05 07:48:22;;;;;;;;;;;17.80;49.30;;;;;;5016642;28;19917;-59
2021/04/05 07:50:51;;;;;;;;;;;17.90;49.20;;;;;;5020764;28;19963;-57
2021/04/05 07:53:24;;;;;;;;;;;17.90;49.00;;;;;;5036700;28;19933;-59
2021/04/05 07:55:50;;;;;;;;;;;17.90;49.00;;;;;;5019456;28;19974;-59
2021/04/05 07:58:27;;;;;;;;;;;17.90;49.10;;;;;;5036734;28;19925;-60
2021/04/05 08:00:58;;;;;;;;;;;17.90;49.00;;;;;;5015655;28;19924;-58
2021/04/05 08:03:24;;;;;;;;;;;18.00;48.90;;;;;;5021005;28;19921;-58
2021/04/05 08:05:50;;;;;;;;;;;17.90;49.50;;;;;;5019251;28;19925;-58
2021/04/05 08:08:30;;;;;;;;;;;18.00;49.40;;;;;;5018804;28;20375;-61
2021/04/05 08:10:58;;;;;;;;;;;18.00;49.20;;;;;;5018660;28;19917;-58
2021/04/05 08:13:38;;;;;;;;;;;18.00;49.20;;;;;;5021862;28;19921;-59
2021/04/05 08:16:22;;;;;;;;;;;18.00;49.30;;;;;;5004153;28;19917;-59
2021/04/05 08:18:50;;;;;;;;;;;17.90;49.50;;;;;;5020954;28;19918;-56
2021/04/05 08:21:17;;;;;;;;;;;18.00;50.20;;;;;;5021014;28;20010;-56
2021/04/05 08:23:58;;;;;;;;;;;17.90;50.10;;;;;;5020650;28;20321;-58
2021/04/05 08:26:33;;;;;;;;;;;17.90;49.90;;;;;;5020531;28;19927;-60
2021/04/05 08:29:13;;;;;;;;;;;18.00;49.90;;;;;;5020345;28;19982;-55
2021/04/05 08:31:57;;;;;;;;;;;18.00;49.80;;;;;;5019692;28;19987;-55
2021/04/05 08:34:41;;;;;;;;;;;18.00;49.90;;;;;;5020969;28;19959;-58
2021/04/05 08:37:18;;;;;;;;;;;18.00;49.90;;;;;;5020220;28;19917;-57
2021/04/05 08:39:44;;;;;;;;;;;18.00;50.00;;;;;;5019076;28;19932;-56
2021/04/05 08:42:30;;;;;;;;;;;18.00;49.90;;;;;;5036666;28;19932;-59
2021/04/05 08:45:01;;;;;;;;;;;18.00;49.90;;;;;;5036051;28;20226;-56
2021/04/05 08:47:30;;;;;;;;;;;18.00;49.90;;;;;;5013847;28;19960;-55
2021/04/05 08:49:57;;;;;;;;;;;18.00;49.90;;;;;;5036556;28;19972;-58
2021/04/05 08:52:23;;;;;;;;;;;18.00;49.90;;;;;;5037304;28;20399;-59
2021/04/05 08:54:49;;;;;;;;;;;18.00;49.90;;;;;;5021698;28;19925;-59
2021/04/05 08:57:17;;;;;;;;;;;18.00;49.80;;;;;;5036725;28;19921;-55
2021/04/05 09:00:03;;;;;;;;;;;18.00;49.80;;;;;;5030758;28;19928;-55
2021/04/05 09:02:35;;;;;;;;;;;18.00;49.80;;;;;;5012383;28;19922;-58
2021/04/05 09:05:00;;;;;;;;;;;18.00;49.80;;;;;;5013781;28;19929;-58
2021/04/05 09:07:35;;;;;;;;;;;18.00;49.80;;;;;;5036117;28;19921;-56
2021/04/05 09:10:04;;;;;;;;;;;18.00;49.80;;;;;;5034753;28;20016;-55
2021/04/05 09:12:31;;;;;;;;;;;18.00;49.80;;;;;;5015460;28;19989;-56
2021/04/05 09:15:15;;;;;;;;;;;18.00;49.90;;;;;;5011065;28;19918;-58
2021/04/05 09:17:49;;;;;;;;;;;18.00;49.90;;;;;;5033255;28;19921;-55
2021/04/05 09:20:23;;;;;;;;;;;18.00;49.90;;;;;;5016681;28;20008;-58
2021/04/05 09:23:07;;;;;;;;;;;18.00;49.90;;;;;;5017921;28;19921;-56
2021/04/05 09:25:43;;;;;;;;;;;17.90;49.90;;;;;;5020097;28;19924;-55
2021/04/05 09:28:24;;;;;;;;;;;18.00;49.90;;;;;;5020717;28;19932;-59
2021/04/05 09:31:08;;;;;;;;;;;18.00;49.90;;;;;;5023972;28;19928;-57
2021/04/05 09:33:52;;;;;;;;;;;18.00;50.00;;;;;;5024493;28;19987;-56
2021/04/05 09:36:29;;;;;;;;;;;18.00;50.00;;;;;;5024723;28;19921;-55
2021/04/05 09:38:55;;;;;;;;;;;18.00;50.00;;;;;;5024037;28;20020;-58
2021/04/05 09:41:20;;;;;;;;;;;18.00;50.00;;;;;;5024612;28;20032;-56
2021/04/05 09:43:49;;;;;;;;;;;18.00;50.10;;;;;;5023398;28;20250;-57
2021/04/05 09:46:33;;;;;;;;;;;18.00;50.30;;;;;;5014867;28;20478;-54
2021/04/05 09:49:09;;;;;;;;;;;18.00;50.80;;;;;;5023664;28;20012;-57
2021/04/05 09:51:42;;;;;;;;;;;18.00;51.00;;;;;;5023567;28;19918;-56
2021/04/05 09:54:22;;;;;;;;;;;17.90;51.50;;;;;;5025128;28;19922;-60
2021/04/05 09:56:50;;;;;;;;;;;18.00;51.60;;;;;;5023612;28;19917;-57
2021/04/05 09:59:16;;;;;;;;;;;18.00;51.80;;;;;;5015253;28;19921;-59
2021/04/05 10:01:42;;;;;;;;;;;18.00;51.80;;;;;;5010654;28;19924;-58
2021/04/05 10:04:08;;;;;;;;;;;18.00;51.80;;;;;;5013309;28;19998;-55
2021/04/05 10:06:34;;;;;;;;;;;18.00;52.20;;;;;;5012805;28;20545;-55
2021/04/05 10:08:59;;;;;;;;;;;17.90;51.60;;;;;;5014640;28;19975;-55
2021/04/05 10:11:28;;;;;;;;;;;18.00;51.80;;;;;;5013433;28;20367;-55
2021/04/05 10:13:55;;;;;;;;;;;18.00;51.90;;;;;;5015251;28;20749;-56
2021/04/05 10:16:21;;;;;;;;;;;18.00;52.00;;;;;;5026404;28;19979;-59
2021/04/05 10:18:54;;;;;;;;;;;18.00;52.50;;;;;;5031747;28;19956;-60
2021/04/05 10:21:20;;;;;;;;;;;18.00;52.70;;;;;;5032243;28;20128;-53
2021/04/05 10:23:46;;;;;;;;;;;18.00;53.10;;;;;;5032336;28;19921;-61
2021/04/05 10:26:12;;;;;;;;;;;18.00;53.30;;;;;;5035039;28;19925;-58
2021/04/05 10:28:37;;;;;;;;;;;18.00;53.50;;;;;;5017245;28;19924;-57
2021/04/05 10:31:03;;;;;;;;;;;18.00;53.60;;;;;;5018282;28;19917;-57
2021/04/05 10:33:30;;;;;;;;;;;18.00;53.80;;;;;;5021837;28;20016;-57
2021/04/05 10:35:57;;;;;;;;;;;18.00;54.00;;;;;;5022280;28;19917;-56
2021/04/05 10:38:23;;;;;;;;;;;18.00;54.90;;;;;;5020968;28;20062;-54
2021/04/05 10:40:49;;;;;;;;;;;18.00;55.40;;;;;;5038405;28;20000;-56
2021/04/05 10:43:28;;;;;;;;;;;18.10;55.70;;;;;;5021823;28;19924;-58
2021/04/05 10:46:01;;;;;;;;;;;18.00;56.10;;;;;;5029580;23;20687;-61
2021/04/05 10:48:48;;;;;;;;;;;18.10;57.00;;;;;;5019482;28;20063;-56
2021/04/05 10:51:15;;;;;;;;;;;18.10;57.90;;;;;;5017592;28;19928;-55
2021/04/05 10:53:41;;;;;;;;;;;18.00;58.30;;;;;;5016278;28;19925;-55
2021/04/05 10:56:09;;;;;;;;;;;18.00;58.90;;;;;;4994598;28;19933;-57
2021/04/05 10:58:40;;;;;;;;;;;18.10;59.10;;;;;;5000749;28;20677;-55
2021/04/05 11:01:06;;;;;;;;;;;18.10;59.70;;;;;;5000310;28;19960;-58
2021/04/05 11:03:31;;;;;;;;;;;18.10;60.20;;;;;;4994129;28;19945;-60
2021/04/05 11:06:00;;;;;;;;;;;18.10;60.90;;;;;;5001527;28;19917;-55
2021/04/05 11:08:27;;;;;;;;;;;18.10;61.60;;;;;;4998687;28;19972;-55
2021/04/05 11:10:59;;;;;;;;;;;18.10;62.00;;;;;;5000568;28;20026;-56
2021/04/05 11:13:25;;;;;;;;;;;18.10;62.90;;;;;;5000931;28;20802;-56
2021/04/05 11:15:50;;;;;;;;;;;18.10;62.90;;;;;;4999979;28;19984;-59
2021/04/05 11:18:16;;;;;;;;;;;18.10;63.50;;;;;;5000794;28;20306;-57
2021/04/05 11:20:42;;;;;;;;;;;18.10;63.10;;;;;;4997192;28;19975;-61
2021/04/05 11:23:11;;;;;;;;;;;18.20;62.40;;;;;;4998954;28;20559;-57
2021/04/05 11:25:40;;;;;;;;;;;18.20;62.40;;;;;;5000274;28;19959;-53
2021/04/05 11:28:16;;;;;;;;;;;18.10;62.90;;;;;;5000787;28;20441;-62
2021/04/05 11:30:41;;;;;;;;;;;18.20;63.20;;;;;;4999743;28;19917;-57
2021/04/05 11:33:08;;;;;;;;;;;18.20;62.20;;;;;;5001461;28;20035;-58
2021/04/05 11:35:33;;;;;;;;;;;18.10;61.50;;;;;;4999431;28;20001;-59
2021/04/05 11:38:02;;;;;;;;;;;18.20;61.90;;;;;;4999293;28;20017;-58
2021/04/05 11:40:28;;;;;;;;;;;18.20;61.10;;;;;;4999335;28;20070;-57
2021/04/05 11:42:54;;;;;;;;;;;18.20;58.80;;;;;;5001584;28;19925;-57
2021/04/05 11:45:32;;;;;;;;;;;18.20;59.70;;;;;;4999390;28;20371;-53
2021/04/05 11:47:58;;;;;;;;;;;18.20;57.60;;;;;;4999051;28;19924;-58
2021/04/05 11:50:24;;;;;;;;;;;18.20;58.60;;;;;;5000020;28;20377;-56
2021/04/05 11:52:51;;;;;;;;;;;18.20;57.90;;;;;;4998369;28;20008;-55
2021/04/05 11:55:26;;;;;;;;;;;18.20;58.50;;;;;;5000736;28;19921;-55
2021/04/05 11:57:53;;;;;;;;;;;18.20;57.50;;;;;;5000295;28;20339;-59
2021/04/05 12:00:20;;;;;;;;;;;18.20;58.10;;;;;;4998561;28;19997;-54
2021/04/05 12:02:49;;;;;;;;;;;18.20;57.50;;;;;;4979426;28;19918;-59
2021/04/05 12:05:19;;;;;;;;;;;18.20;57.30;;;;;;5010566;28;20415;-55
2021/04/05 12:07:45;;;;;;;;;;;18.20;57.30;;;;;;5019166;28;19972;-55
2021/04/05 12:10:20;;;;;;;;;;;18.20;57.80;;;;;;4998337;28;19929;-59
2021/04/05 12:12:51;;;;;;;;;;;18.30;57.90;;;;;;4996099;28;19945;-60
2021/04/05 12:15:17;;;;;;;;;;;18.30;58.10;;;;;;4997765;28;19918;-60
2021/04/05 12:17:43;;;;;;;;;;;18.30;58.30;;;;;;4998870;28;20207;-57
2021/04/05 12:20:09;;;;;;;;;;;18.30;58.80;;;;;;4997186;28;20008;-57
2021/04/05 12:22:34;;;;;;;;;;;18.20;59.40;;;;;;4996191;28;19996;-55
2021/04/05 12:25:00;;;;;;;;;;;18.30;59.80;;;;;;4993603;28;19984;-60
2021/04/05 12:27:31;;;;;;;;;;;18.20;60.00;;;;;;4979009;28;19979;-58
2021/04/05 12:29:57;;;;;;;;;;;18.20;60.50;;;;;;5006449;28;19957;-58
2021/04/05 12:32:23;;;;;;;;;;;18.30;60.60;;;;;;4999697;28;19929;-55
2021/04/05 12:34:52;;;;;;;;;;;18.20;60.60;;;;;;4998755;28;19917;-61
2021/04/05 12:37:18;;;;;;;;;;;18.20;60.60;;;;;;4990269;28;19940;-59
2021/04/05 12:39:49;;;;;;;;;;;18.30;60.90;;;;;;5001803;28;19913;-59
2021/04/05 12:42:14;;;;;;;;;;;18.30;60.70;;;;;;4953209;28;20448;-56
2021/04/05 12:44:43;;;;;;;;;;;18.20;60.60;;;;;;4987593;28;20216;-59
2021/04/05 12:47:09;;;;;;;;;;;18.30;60.30;;;;;;4999963;28;19945;-56
2021/04/05 12:49:35;;;;;;;;;;;18.30;60.40;;;;;;4947464;28;20456;-57
2021/04/05 12:52:01;;;;;;;;;;;18.30;60.40;;;;;;5002267;28;19944;-54
2021/04/05 12:54:27;;;;;;;;;;;18.20;60.30;;;;;;4952060;28;19930;-53
2021/04/05 12:56:52;;;;;;;;;;;18.30;60.20;;;;;;5000831;28;20291;-58
2021/04/05 12:59:21;;;;;;;;;;;18.30;59.90;;;;;;4974709;28;19914;-57
2021/04/05 13:01:51;;;;;;;;;;;18.30;59.60;;;;;;4970386;28;19913;-52
2021/04/05 13:04:20;;;;;;;;;;;18.30;59.50;;;;;;4966832;28;20290;-52
2021/04/05 13:06:46;;;;;;;;;;;18.30;59.50;;;;;;4955971;28;19918;-56
2021/04/05 13:09:18;;;;;;;;;;;18.20;59.30;;;;;;4999542;28;20008;-60
2021/04/05 13:12:02;;;;;;;;;;;18.20;59.10;;;;;;4985288;28;19932;-59
2021/04/05 13:14:33;;;;;;;;;;;18.20;59.10;;;;;;5005705;28;19929;-56
2021/04/05 13:17:01;;;;;;;;;;;18.30;58.80;;;;;;5004499;28;19925;-54
2021/04/05 13:19:32;;;;;;;;;;;18.20;58.80;;;;;;5005536;28;20370;-57
2021/04/05 13:21:58;;;;;;;;;;;18.30;58.50;;;;;;5004773;28;19917;-56
2021/04/05 13:24:24;;;;;;;;;;;18.30;58.30;;;;;;5002530;28;20389;-56
2021/04/05 13:26:55;;;;;;;;;;;18.30;58.00;;;;;;5003898;28;20009;-55
2021/04/05 13:29:21;;;;;;;;;;;18.30;58.10;;;;;;5006121;28;20343;-53
2021/04/05 13:31:53;;;;;;;;;;;18.30;58.00;;;;;;5004690;28;20008;-51
2021/04/05 13:34:22;;;;;;;;;;;18.30;58.00;;;;;;5004586;28;19929;-51
2021/04/05 13:36:48;;;;;;;;;;;18.30;57.80;;;;;;5005531;28;19929;-58
2021/04/05 13:39:13;;;;;;;;;;;18.30;57.60;;;;;;5004177;28;19917;-52
2021/04/05 13:41:39;;;;;;;;;;;18.30;57.50;;;;;;5004251;28;20618;-54
2021/04/05 13:44:06;;;;;;;;;;;18.30;57.40;;;;;;5004496;28;19922;-55
2021/04/05 13:46:31;;;;;;;;;;;18.30;57.30;;;;;;5004392;28;19930;-60
2021/04/05 13:49:03;;;;;;;;;;;18.30;57.10;;;;;;5005625;28;19924;-56
2021/04/05 13:51:28;;;;;;;;;;;18.30;57.00;;;;;;5003578;28;19980;-53
2021/04/05 13:53:55;;;;;;;;;;;18.30;56.90;;;;;;5004977;28;20676;-57
2021/04/05 13:56:23;;;;;;;;;;;18.30;56.80;;;;;;5003903;28;19944;-58
2021/04/05 13:58:51;;;;;;;;;;;18.30;56.60;;;;;;5004078;28;19924;-57
2021/04/05 14:01:16;;;;;;;;;;;18.30;56.40;;;;;;5003570;28;19922;-58
2021/04/05 14:03:46;;;;;;;;;;;18.30;56.30;;;;;;4996604;28;19918;-53
2021/04/05 14:06:12;;;;;;;;;;;18.30;56.20;;;;;;5022709;28;19925;-52
2021/04/05 14:08:40;;;;;;;;;;;18.30;56.10;;;;;;4996840;28;20490;-53
2021/04/05 14:11:06;;;;;;;;;;;18.30;56.00;;;;;;4997458;28;20000;-52
2021/04/05 14:13:32;;;;;;;;;;;18.30;55.90;;;;;;5016468;28;20513;-52
2021/04/05 14:15:58;;;;;;;;;;;18.30;55.90;;;;;;5002401;28;20039;-54
2021/04/05 14:18:25;;;;;;;;;;;18.30;55.80;;;;;;5003440;28;20079;-57
2021/04/05 14:20:50;;;;;;;;;;;18.30;55.70;;;;;;5004060;28;20547;-56
2021/04/05 14:23:17;;;;;;;;;;;18.30;55.60;;;;;;5003469;28;20020;-52
2021/04/05 14:25:54;;;;;;;;;;;18.30;55.60;;;;;;5003027;28;19924;-54